createdAt,value
2019-03-04T00:02:08.436Z,90.24
2019-03-04T00:07:13.933Z,90.31
2019-03-04T00:12:19.103Z,90.61
2019-03-04T00:17:25.317Z,90.57
2019-03-04T00:22:30.540Z,90.01
2019-03-04T00:27:35.798Z,89.69
2019-03-04T00:32:41.134Z,89.72
2019-03-04T00:37:46.442Z,89.56
2019-03-04T00:42:51.724Z,89.78
2019-03-04T00:47:57.048Z,90.08
2019-03-04T00:53:02.263Z,90.25
2019-03-04T00:58:07.512Z,90.58
2019-03-04T01:03:12.972Z,90.82
2019-03-04T01:08:18.206Z,90.51
2019-03-04T01:13:24.757Z,90.39
2019-03-04T01:18:30.018Z,90.49
2019-03-04T01:23:35.265Z,90.86
2019-03-04T01:28:40.535Z,91.15
2019-03-04T01:33:45.758Z,91.21
2019-03-04T01:38:51.169Z,91.28
2019-03-04T01:43:56.387Z,91.30
2019-03-04T01:49:01.634Z,91.04
2019-03-04T01:54:06.928Z,91.32
2019-03-04T01:59:12.101Z,91.26
2019-03-04T02:04:17.513Z,91.18
2019-03-04T02:09:23.402Z,90.96
2019-03-04T02:14:28.652Z,90.90
2019-03-04T02:19:33.932Z,91.06
2019-03-04T02:24:39.160Z,91.27
2019-03-04T02:29:44.473Z,91.10
2019-03-04T02:34:49.760Z,91.14
2019-03-04T02:39:55.144Z,90.77
2019-03-04T02:45:00.407Z,91.30
2019-03-04T02:50:06.688Z,90.91
2019-03-04T02:55:11.938Z,90.64
2019-03-04T03:00:17.987Z,90.28
2019-03-04T03:05:23.285Z,90.13
2019-03-04T03:10:28.464Z,89.87
2019-03-04T03:15:33.663Z,89.76
2019-03-04T03:20:38.862Z,89.26
2019-03-04T03:25:44.118Z,89.21
2019-03-04T03:30:49.322Z,88.90
2019-03-04T03:35:54.619Z,89.65
2019-03-04T03:40:59.928Z,90.02
2019-03-04T03:46:05.294Z,89.91
2019-03-04T03:51:10.619Z,89.77
2019-03-04T03:56:15.849Z,88.97
2019-03-04T04:01:21.268Z,88.57
2019-03-04T04:06:26.545Z,88.11
2019-03-04T04:11:31.856Z,88.40
2019-03-04T04:16:37.096Z,88.37
2019-03-04T04:21:42.466Z,88.40
2019-03-04T04:26:47.768Z,88.35
2019-03-04T04:31:53.029Z,88.28
2019-03-04T04:36:58.245Z,87.89
2019-03-04T04:42:03.693Z,88.26
2019-03-04T04:47:10.603Z,88.20
2019-03-04T04:52:15.794Z,88.82
2019-03-04T04:57:21.054Z,88.52
2019-03-04T05:02:26.363Z,88.99
2019-03-04T05:07:31.671Z,88.80
2019-03-04T05:12:36.986Z,88.70
2019-03-04T05:17:42.357Z,88.91
2019-03-04T05:22:47.648Z,88.37
2019-03-04T05:27:52.923Z,88.72
2019-03-04T05:32:58.243Z,88.78
2019-03-04T05:38:03.733Z,88.68
2019-03-04T05:43:09.011Z,89.01
2019-03-04T05:48:14.287Z,89.08
2019-03-04T05:53:19.572Z,89.20
2019-03-04T05:58:24.798Z,89.01
2019-03-04T06:03:30.148Z,89.11
2019-03-04T06:08:35.497Z,88.91
2019-03-04T06:13:40.663Z,88.55
2019-03-04T06:18:45.933Z,88.70
2019-03-04T06:23:51.188Z,89.15
2019-03-04T06:28:56.348Z,89.34
2019-03-04T06:34:01.714Z,90.40
2019-03-04T06:39:08.632Z,91.32
2019-03-04T06:44:13.818Z,91.59
2019-03-04T06:49:19.126Z,91.89
2019-03-04T06:54:38.144Z,92.71
2019-03-04T07:00:12.193Z,92.99
2019-03-04T07:05:35.377Z,93.10
2019-03-04T07:10:40.738Z,93.16
2019-03-04T07:15:46.271Z,93.68
2019-03-04T07:20:51.599Z,93.87
2019-03-04T07:25:56.867Z,93.97
2019-03-04T07:31:02.294Z,94.08
2019-03-04T07:36:08.160Z,94.16
2019-03-04T07:41:13.605Z,94.42
2019-03-04T07:46:19.027Z,94.59
2019-03-04T07:51:24.257Z,94.68
2019-03-04T07:56:29.629Z,94.86
2019-03-04T08:01:34.958Z,94.94
2019-03-04T08:06:40.383Z,95.17
2019-03-04T08:12:15.237Z,95.04
2019-03-04T08:17:20.500Z,94.38
2019-03-04T08:22:26.086Z,94.48
2019-03-04T08:27:31.418Z,93.68
2019-03-04T08:32:36.657Z,93.39
2019-03-04T08:37:42.107Z,90.82
2019-03-04T08:42:47.363Z,91.20
2019-03-04T08:47:55.677Z,91.49
2019-03-04T08:53:00.877Z,91.61
2019-03-04T08:58:06.237Z,91.42
2019-03-04T09:03:11.557Z,91.18
2019-03-04T09:08:16.885Z,90.74
2019-03-04T09:13:22.387Z,89.72
2019-03-04T09:18:27.741Z,89.46
2019-03-04T09:23:32.998Z,85.91
2019-03-04T09:28:38.484Z,86.23
2019-03-04T09:33:43.833Z,85.64
2019-03-04T09:38:49.135Z,84.95
2019-03-04T09:43:54.322Z,85.94
2019-03-04T09:48:59.647Z,82.33
2019-03-04T09:54:04.994Z,79.22
2019-03-04T09:59:10.418Z,79.46
2019-03-04T10:04:26.743Z,78.15
2019-03-04T10:09:46.288Z,81.90
2019-03-04T10:15:08.338Z,77.99
2019-03-04T10:20:36.298Z,76.15
2019-03-04T10:25:57.102Z,69.61
2019-03-04T10:31:20.088Z,70.90
2019-03-04T10:36:45.297Z,69.40
2019-03-04T10:42:10.749Z,67.08
2019-03-04T10:47:16.168Z,68.43
2019-03-04T10:52:22.525Z,69.83
2019-03-04T10:57:27.958Z,71.71
2019-03-04T11:02:33.203Z,71.12
2019-03-04T11:07:39.523Z,75.74
2019-03-04T11:12:44.687Z,78.49
2019-03-04T11:17:50.102Z,78.49
2019-03-04T11:22:55.501Z,77.96
2019-03-04T11:28:00.929Z,75.54
2019-03-04T11:33:06.433Z,72.67
2019-03-04T11:38:32.885Z,74.39
2019-03-04T11:43:38.210Z,77.89
2019-03-04T11:48:43.609Z,75.90
2019-03-04T11:53:48.873Z,75.93
2019-03-04T11:58:57.127Z,71.20
2019-03-04T12:04:02.558Z,67.22
2019-03-04T12:09:14.273Z,67.72
2019-03-04T12:14:19.509Z,63.46
2019-03-04T12:19:24.838Z,67.31
2019-03-04T12:24:30.211Z,72.78
2019-03-04T12:29:36.771Z,70.26
2019-03-04T12:34:42.249Z,66.92
2019-03-04T12:39:47.587Z,63.45
2019-03-04T12:44:54.814Z,61.14
2019-03-04T12:50:00.347Z,60.97
2019-03-04T12:55:07.024Z,58.44
2019-03-04T13:00:15.130Z,59.74
2019-03-04T13:05:20.679Z,60.96
2019-03-04T13:10:26.081Z,60.54
2019-03-04T13:15:31.460Z,59.66
2019-03-04T13:20:39.583Z,58.69
2019-03-04T13:25:44.891Z,59.85
2019-03-04T13:30:50.372Z,63.27
2019-03-04T13:35:55.616Z,60.32
2019-03-04T13:41:01.584Z,62.22
2019-03-04T13:46:07.071Z,65.36
2019-03-04T13:51:12.372Z,66.50
2019-03-04T13:56:17.757Z,68.44
2019-03-04T14:01:24.556Z,70.20
2019-03-04T14:06:30.110Z,71.33
2019-03-04T14:11:35.622Z,69.89
2019-03-04T14:16:41.040Z,70.32
2019-03-04T14:21:46.449Z,75.29
2019-03-04T14:26:51.854Z,80.95
2019-03-04T14:31:57.327Z,84.66
2019-03-04T14:37:03.388Z,83.66
2019-03-04T14:42:08.776Z,84.11
2019-03-04T14:47:14.025Z,79.94
2019-03-04T14:52:19.248Z,77.47
2019-03-04T14:57:24.608Z,74.55
2019-03-04T15:02:29.906Z,72.35
2019-03-04T15:07:36.675Z,71.81
2019-03-04T15:12:42.371Z,71.35
2019-03-04T15:17:47.800Z,71.82
2019-03-04T15:22:53.316Z,70.72
2019-03-04T15:28:10.495Z,69.39
2019-03-04T15:33:18.428Z,68.86
2019-03-04T15:38:23.122Z,68.70
2019-03-04T15:43:28.890Z,68.70
2019-03-04T15:48:34.485Z,66.28
2019-03-04T15:53:39.812Z,66.96
2019-03-04T15:58:45.035Z,67.85
2019-03-04T16:03:50.226Z,71.53
2019-03-04T16:08:55.501Z,71.42
2019-03-04T16:14:00.781Z,72.34
2019-03-04T16:19:05.972Z,73.20
2019-03-04T16:24:11.256Z,74.51
2019-03-04T16:29:16.558Z,75.08
2019-03-04T16:34:21.816Z,74.94
2019-03-04T16:39:27.120Z,74.11
2019-03-04T16:44:32.435Z,72.53
2019-03-04T16:49:40.803Z,74.51
2019-03-04T16:54:48.808Z,73.81
2019-03-04T16:59:54.266Z,74.66
2019-03-04T17:04:59.746Z,73.61
2019-03-04T17:10:06.230Z,73.91
2019-03-04T17:15:13.951Z,74.18
2019-03-04T17:20:19.801Z,75.12
2019-03-04T17:25:25.297Z,76.21
2019-03-04T17:30:30.566Z,76.17
2019-03-04T17:35:35.920Z,80.12
2019-03-04T17:40:41.311Z,82.86
2019-03-04T17:45:46.567Z,84.26
2019-03-04T17:50:51.947Z,82.98
2019-03-04T17:55:57.260Z,81.46
2019-03-04T18:01:03.526Z,83.93
2019-03-04T18:06:08.709Z,85.25
2019-03-04T18:11:13.902Z,85.31
2019-03-04T18:16:19.198Z,85.49
2019-03-04T18:21:24.401Z,86.23
2019-03-04T18:26:34.438Z,87.20
2019-03-04T18:31:46.901Z,88.19
2019-03-04T18:37:08.067Z,88.37
2019-03-04T18:42:32.612Z,86.39
2019-03-04T18:47:49.106Z,86.24
2019-03-04T18:52:54.636Z,86.64
2019-03-04T18:58:00.051Z,85.41
2019-03-04T19:03:05.386Z,85.10
2019-03-04T19:08:10.656Z,84.49
2019-03-04T19:13:15.872Z,84.20
2019-03-04T19:18:21.276Z,83.78
2019-03-04T19:23:26.471Z,83.34
2019-03-04T19:28:31.780Z,83.56
2019-03-04T19:33:37.166Z,83.64
2019-03-04T19:38:42.424Z,83.19
2019-03-04T19:43:47.774Z,81.23
2019-03-04T19:48:54.557Z,81.38
2019-03-04T19:53:59.990Z,80.60
2019-03-04T19:59:05.180Z,81.51
2019-03-04T20:04:10.441Z,82.18
2019-03-04T20:09:15.759Z,82.92
2019-03-04T20:14:21.239Z,83.39
2019-03-04T20:19:26.561Z,83.72
2019-03-04T20:24:31.897Z,83.06
2019-03-04T20:29:38.468Z,85.11
2019-03-04T20:34:43.798Z,85.59
2019-03-04T20:39:49.105Z,86.86
2019-03-04T20:44:54.466Z,88.18
2019-03-04T20:49:59.730Z,87.52
2019-03-04T20:55:05.705Z,87.31
2019-03-04T21:00:14.472Z,87.35
2019-03-04T21:05:19.985Z,87.35
2019-03-04T21:10:25.491Z,87.53
2019-03-04T21:15:33.977Z,88.01
2019-03-04T21:20:39.124Z,88.24
2019-03-04T21:25:51.495Z,88.92
2019-03-04T21:31:13.596Z,89.03
2019-03-04T21:36:38.196Z,88.81
2019-03-04T21:41:53.740Z,88.86
2019-03-04T21:47:05.762Z,88.78
2019-03-04T21:52:23.259Z,89.14
2019-03-04T21:57:35.451Z,89.06
2019-03-04T22:02:53.518Z,89.06
2019-03-04T22:07:58.737Z,89.02
2019-03-04T22:13:03.998Z,89.20
2019-03-04T22:18:09.889Z,89.14
2019-03-04T22:23:15.165Z,88.65
2019-03-04T22:28:20.436Z,88.44
2019-03-04T22:33:25.586Z,89.34
2019-03-04T22:38:31.011Z,89.57
2019-03-04T22:43:36.337Z,89.54
2019-03-04T22:48:41.704Z,89.33
2019-03-04T22:53:47.023Z,87.87
2019-03-04T22:58:52.410Z,86.74
2019-03-04T23:04:06.850Z,85.98
2019-03-04T23:09:13.911Z,85.20
2019-03-04T23:14:23.991Z,84.85
2019-03-04T23:19:29.351Z,83.94
2019-03-04T23:24:34.650Z,84.55
2019-03-04T23:29:39.971Z,85.54
2019-03-04T23:34:45.305Z,86.19
2019-03-04T23:39:50.750Z,86.91
2019-03-04T23:44:56.210Z,87.58
2019-03-04T23:50:12.871Z,86.35
2019-03-04T23:55:18.252Z,84.63
